Quicksburg, Virginia
Current Conditions -  °F | °C
As of 5:15 PM on Sunday 25 Jan 2015 (Local Time) from K8W2 Reporting Station
Broken Clouds Broken Clouds  
Wind Chill: 42°   Ceiling: 9500
Heat Index: 42°   Visibility: 10mi
Dew Point: 33°   Wind: 0mph
Humidity: 71%   Direction: NA
Pressure: 29.77"   Gusts: NA
Location:  38.69°N, 78.68°W
Report Text: K8W2 252215Z AUTO 00000KT 10SM SCT070 BKN095 06/01 A2977 RMK AO1 T00570008
Loading
Personal Weather Stations






























Interactive Weather Map New forecast layout! Learn more

10-Day Weather Forecast

Advertisements
Track Severe Weather on mobile